createdAt,value
2018-05-16T00:00:30.882Z,1017.25
2018-05-16T00:01:58.568Z,1017.23
2018-05-16T00:03:26.149Z,1017.26
2018-05-16T00:04:53.646Z,1017.27
2018-05-16T00:06:20.954Z,1017.27
2018-05-16T00:07:48.434Z,1017.27
2018-05-16T00:09:15.854Z,1017.26
2018-05-16T00:10:43.221Z,1017.25
2018-05-16T00:12:10.589Z,1017.29
2018-05-16T00:13:38.028Z,1017.31
2018-05-16T00:15:05.480Z,1017.34
2018-05-16T00:16:32.884Z,1017.34
2018-05-16T00:18:00.236Z,1017.37
2018-05-16T00:19:27.633Z,1017.40
2018-05-16T00:20:54.951Z,1017.44
2018-05-16T00:22:22.329Z,1017.45
2018-05-16T00:23:49.580Z,1017.48
2018-05-16T00:25:16.941Z,1017.46
2018-05-16T00:26:44.357Z,1017.50
2018-05-16T00:28:11.886Z,1017.54
2018-05-16T00:29:39.144Z,1017.52
2018-05-16T00:31:06.573Z,1017.56
2018-05-16T00:32:33.902Z,1017.53
2018-05-16T00:34:01.339Z,1017.51
2018-05-16T00:35:28.739Z,1017.52
2018-05-16T00:36:55.988Z,1017.54
2018-05-16T00:38:23.273Z,1017.56
2018-05-16T00:39:50.811Z,1017.56
2018-05-16T00:41:18.113Z,1017.55
2018-05-16T00:42:45.756Z,1017.52
2018-05-16T00:44:12.983Z,1017.53
2018-05-16T00:45:40.343Z,1017.49
2018-05-16T00:47:07.763Z,1017.49
2018-05-16T00:48:35.202Z,1017.50
2018-05-16T00:50:02.489Z,1017.50
2018-05-16T00:51:30.054Z,1017.49
2018-05-16T00:52:57.319Z,1017.47
2018-05-16T00:54:24.792Z,1017.45
2018-05-16T00:55:52.035Z,1017.47
2018-05-16T00:57:19.307Z,1017.45
2018-05-16T00:58:46.739Z,1017.45
2018-05-16T01:00:13.871Z,1017.41
2018-05-16T01:01:41.231Z,1017.41
2018-05-16T01:03:08.761Z,1017.42
2018-05-16T01:04:36.041Z,1017.45
2018-05-16T01:06:03.277Z,1017.49
2018-05-16T01:07:30.677Z,1017.47
2018-05-16T01:08:58.139Z,1017.49
2018-05-16T01:10:25.634Z,1017.47
2018-05-16T01:11:53.071Z,1017.47
2018-05-16T01:13:20.397Z,1017.47
2018-05-16T01:14:47.629Z,1017.47
2018-05-16T01:16:15.005Z,1017.47
2018-05-16T01:17:42.455Z,1017.46
2018-05-16T01:19:09.739Z,1017.46
2018-05-16T01:20:37.273Z,1017.45
2018-05-16T01:22:04.393Z,1017.48
2018-05-16T01:23:31.863Z,1017.49
2018-05-16T01:24:59.201Z,1017.49
2018-05-16T01:26:26.588Z,1017.46
2018-05-16T01:27:53.958Z,1017.45
2018-05-16T01:29:21.397Z,1017.43
2018-05-16T01:30:48.701Z,1017.43
2018-05-16T01:32:16.264Z,1017.38
2018-05-16T01:33:43.622Z,1017.35
2018-05-16T01:35:10.904Z,1017.34
2018-05-16T01:36:38.345Z,1017.32
2018-05-16T01:38:05.835Z,1017.27
2018-05-16T01:39:33.180Z,1017.24
2018-05-16T01:41:00.504Z,1017.20
2018-05-16T01:42:27.950Z,1017.16
2018-05-16T01:43:55.377Z,1017.14
2018-05-16T01:45:22.599Z,1017.09
2018-05-16T01:46:49.983Z,1017.10
2018-05-16T01:48:17.581Z,1017.08
2018-05-16T01:49:45.032Z,1017.07
2018-05-16T01:51:12.578Z,1017.06
2018-05-16T01:52:39.825Z,1017.04
2018-05-16T01:54:07.188Z,1017.03
2018-05-16T01:55:34.517Z,1017.03
2018-05-16T01:57:01.729Z,1017.04
2018-05-16T01:58:29.037Z,1017.04
2018-05-16T01:59:56.590Z,1017.04
2018-05-16T02:01:23.873Z,1017.07
2018-05-16T02:02:51.237Z,1017.08
2018-05-16T02:04:18.830Z,1017.09
2018-05-16T02:05:46.042Z,1017.08
2018-05-16T02:07:13.476Z,1017.11
2018-05-16T02:08:40.945Z,1017.13
2018-05-16T02:10:08.239Z,1017.11
2018-05-16T02:11:35.627Z,1017.11
2018-05-16T02:13:03.213Z,1017.09
2018-05-16T02:14:30.369Z,1017.09
2018-05-16T02:15:57.870Z,1017.07
2018-05-16T02:17:25.075Z,1017.08
2018-05-16T02:18:52.567Z,1017.06
2018-05-16T02:20:20.040Z,1017.06
2018-05-16T02:21:47.250Z,1017.04
2018-05-16T02:23:14.737Z,1017.04
2018-05-16T02:24:41.935Z,1017.05
2018-05-16T02:26:09.422Z,1017.03
2018-05-16T02:27:36.752Z,1017.01
2018-05-16T02:29:04.037Z,1016.97
2018-05-16T02:30:31.574Z,1016.96
2018-05-16T02:31:58.567Z,1016.95
2018-05-16T02:33:25.925Z,1016.95
2018-05-16T02:34:53.419Z,1016.92
2018-05-16T02:36:20.795Z,1016.95
2018-05-16T02:37:48.107Z,1016.96
2018-05-16T02:39:15.520Z,1016.95
2018-05-16T02:40:43.064Z,1016.97
2018-05-16T02:42:10.430Z,1016.98
2018-05-16T02:43:37.657Z,1016.96
2018-05-16T02:45:04.985Z,1016.96
2018-05-16T02:46:33.460Z,1016.93
2018-05-16T02:47:59.795Z,1016.92
2018-05-16T02:49:26.999Z,1016.91
2018-05-16T02:50:54.538Z,1016.91
2018-05-16T02:52:21.769Z,1016.89
2018-05-16T02:53:49.146Z,1016.90
2018-05-16T02:55:16.501Z,1016.93
2018-05-16T02:56:43.805Z,1016.93
2018-05-16T02:58:11.204Z,1016.93
2018-05-16T02:59:38.513Z,1016.90
2018-05-16T03:01:05.935Z,1016.89
2018-05-16T03:02:33.283Z,1016.89
2018-05-16T03:04:00.644Z,1016.87
2018-05-16T03:05:28.353Z,1016.88
2018-05-16T03:06:55.472Z,1016.87
2018-05-16T03:08:22.591Z,1016.88
2018-05-16T03:09:50.040Z,1016.88
2018-05-16T03:11:17.406Z,1016.89
2018-05-16T03:12:44.869Z,1016.88
2018-05-16T03:14:11.983Z,1016.89
2018-05-16T03:15:39.524Z,1016.88
2018-05-16T03:17:06.753Z,1016.88
2018-05-16T03:18:34.218Z,1016.87
2018-05-16T03:20:01.530Z,1016.86
2018-05-16T03:21:28.861Z,1016.88
2018-05-16T03:22:56.264Z,1016.87
2018-05-16T03:24:23.735Z,1016.89
2018-05-16T03:25:51.094Z,1016.90
2018-05-16T03:27:18.589Z,1016.91
2018-05-16T03:28:45.871Z,1016.90
2018-05-16T03:30:13.227Z,1016.92
2018-05-16T03:31:40.896Z,1016.94
2018-05-16T03:33:08.182Z,1016.99
2018-05-16T03:34:35.406Z,1017.03
2018-05-16T03:36:02.778Z,1017.07
2018-05-16T03:37:30.132Z,1017.07
2018-05-16T03:38:57.419Z,1017.06
2018-05-16T03:40:24.917Z,1017.06
2018-05-16T03:41:52.150Z,1017.05
2018-05-16T03:43:19.713Z,1017.07
2018-05-16T03:44:46.911Z,1017.07
2018-05-16T03:46:14.060Z,1017.06
2018-05-16T03:47:41.558Z,1017.07
2018-05-16T03:49:08.786Z,1017.08
2018-05-16T03:50:36.263Z,1017.07
2018-05-16T03:52:03.537Z,1017.10
2018-05-16T03:53:30.757Z,1017.13
2018-05-16T03:54:58.289Z,1017.13
2018-05-16T03:56:25.546Z,1017.11
2018-05-16T03:57:52.898Z,1017.14
2018-05-16T03:59:20.325Z,1017.15
2018-05-16T04:00:47.514Z,1017.16
2018-05-16T04:02:15.312Z,1017.16
2018-05-16T04:03:42.374Z,1017.16
2018-05-16T04:05:09.503Z,1017.15
2018-05-16T04:06:36.749Z,1017.15
2018-05-16T04:08:04.073Z,1017.15
2018-05-16T04:09:31.453Z,1017.16
2018-05-16T04:10:58.626Z,1017.16
2018-05-16T04:12:26.155Z,1017.16
2018-05-16T04:13:53.481Z,1017.16
2018-05-16T04:15:20.577Z,1017.16
2018-05-16T04:16:47.611Z,1017.16
2018-05-16T04:18:15.041Z,1017.14
2018-05-16T04:19:42.368Z,1017.15
2018-05-16T04:21:09.743Z,1017.12
2018-05-16T04:22:37.146Z,1017.15
2018-05-16T04:24:04.474Z,1017.14
2018-05-16T04:25:31.962Z,1017.15
2018-05-16T04:26:59.125Z,1017.14
2018-05-16T04:28:26.596Z,1017.15
2018-05-16T04:29:53.756Z,1017.14
2018-05-16T04:31:21.295Z,1017.15
2018-05-16T04:32:48.527Z,1017.15
2018-05-16T04:34:15.993Z,1017.16
2018-05-16T04:35:43.371Z,1017.14
2018-05-16T04:37:10.396Z,1017.10
2018-05-16T04:38:37.817Z,1017.06
2018-05-16T04:40:05.123Z,1017.06
2018-05-16T04:41:32.192Z,1017.07
2018-05-16T04:42:59.575Z,1017.12
2018-05-16T04:44:27.062Z,1017.15
2018-05-16T04:45:54.468Z,1017.18
2018-05-16T04:47:21.677Z,1017.15
2018-05-16T04:48:49.093Z,1017.14
2018-05-16T04:50:16.591Z,1017.13
2018-05-16T04:51:43.791Z,1017.14
2018-05-16T04:53:11.295Z,1017.15
2018-05-16T04:54:38.508Z,1017.15
2018-05-16T04:56:05.893Z,1017.16
2018-05-16T04:57:33.368Z,1017.17
2018-05-16T04:59:00.707Z,1017.16
2018-05-16T05:00:28.017Z,1017.17
2018-05-16T05:01:55.446Z,1017.19
2018-05-16T05:03:22.820Z,1017.19
2018-05-16T05:04:50.149Z,1017.22
2018-05-16T05:06:17.524Z,1017.25
2018-05-16T05:07:44.936Z,1017.25
2018-05-16T05:09:12.227Z,1017.26
2018-05-16T05:10:39.729Z,1017.24
2018-05-16T05:12:07.394Z,1017.25
2018-05-16T05:13:34.682Z,1017.24
2018-05-16T05:15:01.793Z,1017.21
2018-05-16T05:16:29.197Z,1017.20
2018-05-16T05:17:56.519Z,1017.21
2018-05-16T05:19:23.665Z,1017.23
2018-05-16T05:20:51.084Z,1017.23
2018-05-16T05:22:18.648Z,1017.22
2018-05-16T05:23:45.883Z,1017.23
2018-05-16T05:25:13.420Z,1017.21
2018-05-16T05:26:40.669Z,1017.17
2018-05-16T05:28:07.957Z,1017.17
2018-05-16T05:29:35.510Z,1017.16
2018-05-16T05:31:02.929Z,1017.16
2018-05-16T05:32:30.203Z,1017.14
2018-05-16T05:33:57.561Z,1017.12
2018-05-16T05:35:25.042Z,1017.12
2018-05-16T05:36:52.296Z,1017.12
2018-05-16T05:38:19.536Z,1017.14
2018-05-16T05:39:46.819Z,1017.13
2018-05-16T05:41:14.332Z,1017.15
2018-05-16T05:42:41.665Z,1017.14
2018-05-16T05:44:09.272Z,1017.16
2018-05-16T05:45:36.740Z,1017.14
2018-05-16T05:47:04.367Z,1017.14
2018-05-16T05:48:34.482Z,1017.12
2018-05-16T05:49:58.683Z,1017.10
2018-05-16T05:51:25.773Z,1017.13
2018-05-16T05:52:53.313Z,1017.12
2018-05-16T05:54:20.662Z,1017.12
2018-05-16T05:55:48.177Z,1017.09
2018-05-16T05:57:15.663Z,1017.04
2018-05-16T05:58:43.182Z,1017.02
2018-05-16T06:00:10.436Z,1017.00
2018-05-16T06:01:37.780Z,1016.99
2018-05-16T06:03:05.202Z,1016.98
2018-05-16T06:04:32.671Z,1017.01
2018-05-16T06:05:59.943Z,1017.00
2018-05-16T06:07:27.597Z,1017.00
2018-05-16T06:08:54.899Z,1016.99
2018-05-16T06:10:22.350Z,1016.94
2018-05-16T06:11:49.801Z,1016.91
2018-05-16T06:13:16.991Z,1016.88
2018-05-16T06:14:44.478Z,1016.89
2018-05-16T06:16:12.146Z,1016.89
2018-05-16T06:17:39.656Z,1016.92
2018-05-16T06:19:06.987Z,1016.92
2018-05-16T06:20:34.580Z,1016.94
2018-05-16T06:22:01.939Z,1016.97
2018-05-16T06:23:29.480Z,1017.01
2018-05-16T06:24:56.938Z,1016.97
2018-05-16T06:26:24.318Z,1016.91
2018-05-16T06:27:51.686Z,1016.87
2018-05-16T06:29:19.105Z,1016.83
2018-05-16T06:30:46.716Z,1016.86
2018-05-16T06:32:14.249Z,1016.88
2018-05-16T06:33:41.735Z,1016.89
2018-05-16T06:35:09.168Z,1016.89
2018-05-16T06:36:36.699Z,1016.88
2018-05-16T06:38:04.039Z,1016.84
2018-05-16T06:39:31.602Z,1016.85
2018-05-16T06:40:59.022Z,1016.87
2018-05-16T06:42:26.235Z,1016.89
2018-05-16T06:43:53.684Z,1016.90
2018-05-16T06:45:21.353Z,1016.89
2018-05-16T06:46:48.783Z,1016.93
2018-05-16T06:48:16.158Z,1016.95
2018-05-16T06:49:43.682Z,1016.96
2018-05-16T06:51:11.160Z,1016.95
2018-05-16T06:52:38.663Z,1016.95
2018-05-16T06:54:06.019Z,1016.94
2018-05-16T06:55:33.589Z,1016.91
2018-05-16T06:57:00.802Z,1016.87
2018-05-16T06:58:28.382Z,1016.87
2018-05-16T06:59:55.914Z,1016.85
2018-05-16T07:01:23.489Z,1016.88
2018-05-16T07:02:50.921Z,1016.90
2018-05-16T07:04:18.409Z,1016.93
2018-05-16T07:05:45.759Z,1016.91
2018-05-16T07:07:13.480Z,1016.92
2018-05-16T07:08:40.785Z,1016.94
2018-05-16T07:10:08.372Z,1016.95
2018-05-16T07:11:35.672Z,1016.95
2018-05-16T07:13:03.354Z,1016.95
2018-05-16T07:14:30.746Z,1016.94
2018-05-16T07:15:58.189Z,1016.91
2018-05-16T07:17:25.762Z,1016.92
2018-05-16T07:18:52.768Z,1016.90
2018-05-16T07:20:20.362Z,1016.89
2018-05-16T07:21:47.759Z,1016.90
2018-05-16T07:23:15.191Z,1016.91
2018-05-16T07:24:42.619Z,1016.92
2018-05-16T07:26:10.523Z,1016.92
2018-05-16T07:27:37.890Z,1016.94
2018-05-16T07:29:05.354Z,1016.93
2018-05-16T07:30:32.960Z,1016.95
2018-05-16T07:32:00.162Z,1016.94
2018-05-16T07:33:27.696Z,1016.93
2018-05-16T07:34:54.996Z,1016.90
2018-05-16T07:36:22.555Z,1016.90
2018-05-16T07:37:50.136Z,1016.89
2018-05-16T07:39:17.492Z,1016.88
2018-05-16T07:40:44.918Z,1016.87
2018-05-16T07:42:12.250Z,1016.87
2018-05-16T07:43:39.536Z,1016.84
2018-05-16T07:45:06.884Z,1016.83
2018-05-16T07:46:34.445Z,1016.81
2018-05-16T07:48:01.833Z,1016.85
2018-05-16T07:49:29.052Z,1016.89
2018-05-16T07:50:56.635Z,1016.92
2018-05-16T07:52:24.003Z,1016.90
2018-05-16T07:53:51.549Z,1016.86
2018-05-16T07:55:18.890Z,1016.85
2018-05-16T07:56:46.448Z,1016.83
2018-05-16T07:58:14.010Z,1016.80
2018-05-16T07:59:41.371Z,1016.80
2018-05-16T08:01:09.142Z,1016.82
2018-05-16T08:02:36.416Z,1016.80
2018-05-16T08:04:04.056Z,1016.79
2018-05-16T08:05:31.206Z,1016.73
2018-05-16T08:06:58.837Z,1016.70
2018-05-16T08:08:26.239Z,1016.70
2018-05-16T08:09:53.728Z,1016.74
2018-05-16T08:11:21.114Z,1016.72
2018-05-16T08:12:48.609Z,1016.73
2018-05-16T08:14:16.118Z,1016.69
2018-05-16T08:15:43.642Z,1016.67
2018-05-16T08:17:11.019Z,1016.67
2018-05-16T08:18:38.452Z,1016.67
2018-05-16T08:20:06.017Z,1016.67
2018-05-16T08:21:33.591Z,1016.64
2018-05-16T08:23:00.916Z,1016.63
2018-05-16T08:24:28.326Z,1016.62
2018-05-16T08:25:55.876Z,1016.62
2018-05-16T08:27:23.304Z,1016.64
2018-05-16T08:28:50.680Z,1016.66
2018-05-16T08:30:18.252Z,1016.63
2018-05-16T08:31:45.672Z,1016.67
2018-05-16T08:33:13.310Z,1016.66
2018-05-16T08:34:40.855Z,1016.68
2018-05-16T08:36:08.320Z,1016.71
2018-05-16T08:37:35.781Z,1016.68
2018-05-16T08:39:03.287Z,1016.68
2018-05-16T08:40:30.681Z,1016.69
2018-05-16T08:41:58.151Z,1016.67
2018-05-16T08:43:25.783Z,1016.65
2018-05-16T08:44:53.255Z,1016.66
2018-05-16T08:46:20.606Z,1016.65
2018-05-16T08:47:48.154Z,1016.68
2018-05-16T08:49:15.831Z,1016.65
2018-05-16T08:50:43.224Z,1016.64
2018-05-16T08:52:10.766Z,1016.65
2018-05-16T08:53:38.356Z,1016.63
2018-05-16T08:55:05.907Z,1016.61
2018-05-16T08:56:33.503Z,1016.60
2018-05-16T08:58:01.095Z,1016.57
2018-05-16T08:59:28.606Z,1016.54
2018-05-16T09:00:56.129Z,1016.49
2018-05-16T09:02:23.735Z,1016.48
2018-05-16T09:03:51.331Z,1016.47
2018-05-16T09:05:18.710Z,1016.45
2018-05-16T09:06:46.347Z,1016.44
2018-05-16T09:08:13.913Z,1016.42
2018-05-16T09:09:41.530Z,1016.45
2018-05-16T09:11:09.058Z,1016.49
2018-05-16T09:12:36.670Z,1016.46
2018-05-16T09:14:03.846Z,1016.42
2018-05-16T09:15:31.280Z,1016.41
2018-05-16T09:16:58.880Z,1016.40
2018-05-16T09:18:26.549Z,1016.41
2018-05-16T09:19:54.078Z,1016.41
2018-05-16T09:21:21.696Z,1016.41
2018-05-16T09:22:49.213Z,1016.42
2018-05-16T09:24:26.384Z,1016.46
2018-05-16T09:25:53.639Z,1016.43
2018-05-16T09:27:21.340Z,1016.40
2018-05-16T09:28:48.940Z,1016.40
2018-05-16T09:30:16.517Z,1016.38
2018-05-16T09:31:44.036Z,1016.38
2018-05-16T09:33:11.510Z,1016.40
2018-05-16T09:34:39.051Z,1016.38
2018-05-16T09:36:06.452Z,1016.35
2018-05-16T09:37:33.942Z,1016.34
2018-05-16T09:39:01.467Z,1016.32
2018-05-16T09:40:28.762Z,1016.32
2018-05-16T09:42:05.950Z,1016.38
2018-05-16T09:43:33.109Z,1016.36
2018-05-16T09:45:00.498Z,1016.40
2018-05-16T09:46:28.153Z,1016.43
2018-05-16T09:47:55.675Z,1016.40
2018-05-16T09:49:23.039Z,1016.36
2018-05-16T09:50:50.785Z,1016.34
2018-05-16T09:52:18.296Z,1016.30
2018-05-16T09:53:45.739Z,1016.28
2018-05-16T09:55:13.161Z,1016.28
2018-05-16T09:56:40.874Z,1016.29
2018-05-16T09:58:08.464Z,1016.30
2018-05-16T09:59:35.995Z,1016.25
2018-05-16T10:01:03.594Z,1016.27
2018-05-16T10:02:30.727Z,1016.30
2018-05-16T10:03:58.357Z,1016.28
2018-05-16T10:05:25.718Z,1016.29
2018-05-16T10:06:53.244Z,1016.28
2018-05-16T10:08:20.979Z,1016.24
2018-05-16T10:09:48.540Z,1016.22
2018-05-16T10:11:16.084Z,1016.25
2018-05-16T10:12:43.654Z,1016.26
2018-05-16T10:14:11.036Z,1016.25
2018-05-16T10:15:38.653Z,1016.31
2018-05-16T10:17:06.313Z,1016.32
2018-05-16T10:18:33.669Z,1016.36
2018-05-16T10:20:00.983Z,1016.37
2018-05-16T10:21:28.404Z,1016.37
2018-05-16T10:22:55.817Z,1016.38
2018-05-16T10:24:23.252Z,1016.39
2018-05-16T10:25:50.688Z,1016.39
2018-05-16T10:27:18.350Z,1016.41
2018-05-16T10:28:45.891Z,1016.41
2018-05-16T10:30:13.299Z,1016.40
2018-05-16T10:31:40.810Z,1016.39
2018-05-16T10:33:08.189Z,1016.40
2018-05-16T10:34:35.811Z,1016.41
2018-05-16T10:36:03.544Z,1016.44
2018-05-16T10:37:31.033Z,1016.43
2018-05-16T10:38:58.666Z,1016.42
2018-05-16T10:40:26.121Z,1016.44
2018-05-16T10:41:53.594Z,1016.40
2018-05-16T10:43:21.269Z,1016.41
2018-05-16T10:44:48.944Z,1016.39
2018-05-16T10:46:16.391Z,1016.37
2018-05-16T10:47:43.741Z,1016.41
2018-05-16T10:49:11.311Z,1016.41
2018-05-16T10:50:38.681Z,1016.40
2018-05-16T10:52:06.371Z,1016.40
2018-05-16T10:53:33.743Z,1016.43
2018-05-16T10:55:01.121Z,1016.43
2018-05-16T10:56:28.474Z,1016.42
2018-05-16T10:57:56.104Z,1016.37
2018-05-16T10:59:23.716Z,1016.40
2018-05-16T11:00:51.348Z,1016.45
2018-05-16T11:02:18.799Z,1016.49
2018-05-16T11:03:46.332Z,1016.54
2018-05-16T11:05:13.773Z,1016.50
2018-05-16T11:06:41.350Z,1016.51
2018-05-16T11:08:08.902Z,1016.50
2018-05-16T11:09:36.364Z,1016.50
2018-05-16T11:11:03.846Z,1016.52
2018-05-16T11:12:31.485Z,1016.52
2018-05-16T11:13:58.746Z,1016.53
2018-05-16T11:15:26.165Z,1016.51
2018-05-16T11:16:53.670Z,1016.55
2018-05-16T11:18:21.234Z,1016.55
2018-05-16T11:19:48.630Z,1016.50
2018-05-16T11:21:16.233Z,1016.47
2018-05-16T11:22:43.747Z,1016.47
2018-05-16T11:24:11.154Z,1016.48
2018-05-16T11:25:38.653Z,1016.48
2018-05-16T11:27:06.316Z,1016.45
2018-05-16T11:28:33.721Z,1016.44
2018-05-16T11:30:01.178Z,1016.45
2018-05-16T11:31:28.905Z,1016.47
2018-05-16T11:32:56.439Z,1016.46
2018-05-16T11:34:23.756Z,1016.38
2018-05-16T11:35:51.182Z,1016.31
2018-05-16T11:37:18.719Z,1016.33
2018-05-16T11:38:46.282Z,1016.39
2018-05-16T11:40:13.848Z,1016.40
2018-05-16T11:41:41.449Z,1016.42
2018-05-16T11:43:08.796Z,1016.40
2018-05-16T11:44:36.208Z,1016.45
2018-05-16T11:46:03.497Z,1016.51
2018-05-16T11:47:31.147Z,1016.53
2018-05-16T11:48:58.620Z,1016.55
2018-05-16T11:50:26.150Z,1016.59
2018-05-16T11:51:53.719Z,1016.59
2018-05-16T11:53:21.262Z,1016.52
2018-05-16T11:54:48.782Z,1016.51
2018-05-16T11:56:16.425Z,1016.50
2018-05-16T11:57:43.710Z,1016.50
2018-05-16T11:59:11.110Z,1016.52
2018-05-16T12:00:38.493Z,1016.50
2018-05-16T12:02:05.908Z,1016.51
2018-05-16T12:03:33.169Z,1016.48
2018-05-16T12:05:00.687Z,1016.51
2018-05-16T12:06:28.165Z,1016.54
2018-05-16T12:07:55.657Z,1016.52
2018-05-16T12:09:23.237Z,1016.49
2018-05-16T12:10:50.736Z,1016.52
2018-05-16T12:12:18.193Z,1016.55
2018-05-16T12:13:45.758Z,1016.56
2018-05-16T12:15:13.095Z,1016.61
2018-05-16T12:16:40.677Z,1016.62
2018-05-16T12:18:08.239Z,1016.64
2018-05-16T12:19:35.321Z,1016.65
2018-05-16T12:21:02.798Z,1016.65
2018-05-16T12:22:30.374Z,1016.65
2018-05-16T12:23:57.815Z,1016.67
2018-05-16T12:25:25.274Z,1016.67
2018-05-16T12:26:52.846Z,1016.67
2018-05-16T12:28:20.389Z,1016.66
2018-05-16T12:29:47.732Z,1016.63
2018-05-16T12:31:15.157Z,1016.60
2018-05-16T12:32:42.544Z,1016.56
2018-05-16T12:34:10.148Z,1016.51
2018-05-16T12:35:37.733Z,1016.50
2018-05-16T12:37:05.118Z,1016.50
2018-05-16T12:38:32.655Z,1016.49
2018-05-16T12:40:00.159Z,1016.50
2018-05-16T12:41:27.546Z,1016.52
2018-05-16T12:42:54.902Z,1016.57
2018-05-16T12:44:22.474Z,1016.59
2018-05-16T12:45:50.055Z,1016.57
2018-05-16T12:47:17.433Z,1016.55
2018-05-16T12:48:44.994Z,1016.51
2018-05-16T12:50:12.562Z,1016.46
2018-05-16T12:51:39.840Z,1016.42
2018-05-16T12:53:07.454Z,1016.40
2018-05-16T12:54:34.895Z,1016.38
2018-05-16T12:56:02.111Z,1016.40
2018-05-16T12:57:29.677Z,1016.38
2018-05-16T12:58:57.266Z,1016.38
2018-05-16T13:00:24.864Z,1016.38
2018-05-16T13:01:52.327Z,1016.37
2018-05-16T13:03:19.906Z,1016.37
2018-05-16T13:04:47.529Z,1016.36
2018-05-16T13:06:15.038Z,1016.38
2018-05-16T13:07:42.486Z,1016.34
2018-05-16T13:09:09.891Z,1016.37
2018-05-16T13:10:37.503Z,1016.36
2018-05-16T13:12:05.095Z,1016.34
2018-05-16T13:13:32.239Z,1016.37
2018-05-16T13:14:59.745Z,1016.35
2018-05-16T13:16:27.393Z,1016.33
2018-05-16T13:17:54.880Z,1016.34
2018-05-16T13:19:22.396Z,1016.30
2018-05-16T13:20:49.927Z,1016.31
2018-05-16T13:22:17.177Z,1016.31
2018-05-16T13:23:44.886Z,1016.32
2018-05-16T13:25:12.383Z,1016.34
2018-05-16T13:26:39.887Z,1016.37
2018-05-16T13:28:07.321Z,1016.37
2018-05-16T13:29:34.702Z,1016.39
2018-05-16T13:31:02.132Z,1016.41
2018-05-16T13:32:29.306Z,1016.39
2018-05-16T13:33:56.924Z,1016.39
2018-05-16T13:35:24.464Z,1016.37
2018-05-16T13:36:52.026Z,1016.33
2018-05-16T13:38:19.479Z,1016.31
2018-05-16T13:39:46.941Z,1016.28
2018-05-16T13:41:14.438Z,1016.25
2018-05-16T13:42:41.974Z,1016.26
2018-05-16T13:44:09.562Z,1016.23
2018-05-16T13:45:37.029Z,1016.20
2018-05-16T13:47:04.459Z,1016.17
2018-05-16T13:48:31.850Z,1016.17
2018-05-16T13:49:59.518Z,1016.14
2018-05-16T13:51:27.121Z,1016.15
2018-05-16T13:52:54.593Z,1016.15
2018-05-16T13:54:22.043Z,1016.13
2018-05-16T13:55:49.592Z,1016.15
2018-05-16T13:57:17.141Z,1016.11
2018-05-16T13:58:44.513Z,1016.13
2018-05-16T14:00:12.019Z,1016.13
2018-05-16T14:01:39.484Z,1016.14
2018-05-16T14:03:06.847Z,1016.13
2018-05-16T14:04:34.439Z,1016.15
2018-05-16T14:06:01.951Z,1016.13
2018-05-16T14:07:29.229Z,1016.07
2018-05-16T14:08:56.714Z,1016.04
2018-05-16T14:10:24.357Z,1015.97
2018-05-16T14:11:51.927Z,1015.92
2018-05-16T14:13:19.391Z,1015.94
2018-05-16T14:14:46.903Z,1015.93
2018-05-16T14:16:14.461Z,1015.94
2018-05-16T14:17:41.925Z,1015.92
2018-05-16T14:19:09.439Z,1015.91
2018-05-16T14:20:37.086Z,1015.92
2018-05-16T14:22:04.590Z,1015.90
2018-05-16T14:23:32.081Z,1015.85
2018-05-16T14:24:59.726Z,1015.83
2018-05-16T14:26:27.390Z,1015.79
2018-05-16T14:27:54.799Z,1015.83
2018-05-16T14:29:22.329Z,1015.82
2018-05-16T14:30:49.942Z,1015.82
2018-05-16T14:32:17.540Z,1015.81
2018-05-16T14:33:44.931Z,1015.79
2018-05-16T14:35:12.487Z,1015.78
2018-05-16T14:36:40.051Z,1015.77
2018-05-16T14:38:07.505Z,1015.75
2018-05-16T14:39:35.077Z,1015.74
2018-05-16T14:41:02.524Z,1015.73
2018-05-16T14:42:29.852Z,1015.74
2018-05-16T14:43:57.258Z,1015.74
2018-05-16T14:45:24.854Z,1015.73
2018-05-16T14:46:52.216Z,1015.74
2018-05-16T14:48:20.824Z,1015.74
2018-05-16T14:49:47.299Z,1015.74
2018-05-16T14:51:14.753Z,1015.73
2018-05-16T14:52:42.143Z,1015.75
2018-05-16T14:54:09.749Z,1015.76
2018-05-16T14:55:37.207Z,1015.82
2018-05-16T14:57:04.690Z,1015.80
2018-05-16T14:58:32.212Z,1015.82
2018-05-16T14:59:59.642Z,1015.82
2018-05-16T15:01:27.006Z,1015.81
2018-05-16T15:02:54.506Z,1015.79
2018-05-16T15:04:21.916Z,1015.80
2018-05-16T15:05:49.377Z,1015.81
2018-05-16T15:07:16.938Z,1015.82
2018-05-16T15:08:44.375Z,1015.79
2018-05-16T15:10:11.796Z,1015.79
2018-05-16T15:11:39.128Z,1015.79
2018-05-16T15:13:06.602Z,1015.81
2018-05-16T15:14:33.892Z,1015.81
2018-05-16T15:16:01.480Z,1015.83
2018-05-16T15:17:28.712Z,1015.83
2018-05-16T15:18:56.184Z,1015.85
2018-05-16T15:20:23.760Z,1015.86
2018-05-16T15:21:51.091Z,1015.85
2018-05-16T15:23:18.647Z,1015.87
2018-05-16T15:24:46.253Z,1015.88
2018-05-16T15:26:13.697Z,1015.87
2018-05-16T15:27:41.178Z,1015.86
2018-05-16T15:29:08.673Z,1015.86
2018-05-16T15:30:36.062Z,1015.85
2018-05-16T15:32:03.561Z,1015.83
2018-05-16T15:33:30.949Z,1015.84
2018-05-16T15:34:58.421Z,1015.81
2018-05-16T15:36:25.951Z,1015.79
2018-05-16T15:39:20.867Z,1015.79
2018-05-16T15:40:48.528Z,1015.77
2018-05-16T15:42:16.017Z,1015.77
2018-05-16T15:43:43.585Z,1015.75
2018-05-16T15:45:10.898Z,1015.75
2018-05-16T15:46:38.519Z,1015.73
2018-05-16T15:48:05.864Z,1015.69
2018-05-16T15:49:33.538Z,1015.64
2018-05-16T15:51:01.050Z,1015.62
2018-05-16T15:52:28.417Z,1015.60
2018-05-16T15:53:55.756Z,1015.60
2018-05-16T15:55:23.447Z,1015.57
2018-05-16T15:56:50.994Z,1015.58
2018-05-16T15:58:18.238Z,1015.55
2018-05-16T15:59:45.717Z,1015.53
2018-05-16T16:01:13.400Z,1015.53
2018-05-16T16:02:40.857Z,1015.54
2018-05-16T16:04:08.396Z,1015.57
2018-05-16T16:05:35.827Z,1015.58
2018-05-16T16:07:03.164Z,1015.59
2018-05-16T16:08:30.660Z,1015.60
2018-05-16T16:09:58.254Z,1015.61
2018-05-16T16:11:25.610Z,1015.61
2018-05-16T16:12:52.873Z,1015.62
2018-05-16T16:14:20.444Z,1015.63
2018-05-16T16:15:48.117Z,1015.61
2018-05-16T16:17:15.433Z,1015.59
2018-05-16T16:18:42.985Z,1015.59
2018-05-16T16:20:10.369Z,1015.61
2018-05-16T16:21:37.874Z,1015.59
2018-05-16T16:23:05.334Z,1015.57
2018-05-16T16:24:32.926Z,1015.57
2018-05-16T16:26:00.328Z,1015.56
2018-05-16T16:27:27.926Z,1015.57
2018-05-16T16:28:55.419Z,1015.55
2018-05-16T16:30:23.092Z,1015.52
2018-05-16T16:31:50.383Z,1015.52
2018-05-16T16:33:17.818Z,1015.48
2018-05-16T16:34:45.094Z,1015.48
2018-05-16T16:36:12.541Z,1015.49
2018-05-16T16:37:40.128Z,1015.49
2018-05-16T16:39:07.500Z,1015.46
2018-05-16T16:40:34.932Z,1015.47
2018-05-16T16:42:02.335Z,1015.46
2018-05-16T16:43:29.752Z,1015.45
2018-05-16T16:44:57.280Z,1015.47
2018-05-16T16:46:24.699Z,1015.49
2018-05-16T16:47:52.127Z,1015.50
2018-05-16T16:49:19.579Z,1015.50
2018-05-16T16:50:47.098Z,1015.51
2018-05-16T16:52:14.502Z,1015.51
2018-05-16T16:53:41.947Z,1015.50
2018-05-16T16:55:09.469Z,1015.49
2018-05-16T16:56:36.923Z,1015.48
2018-05-16T16:58:04.516Z,1015.46
2018-05-16T16:59:32.073Z,1015.46
2018-05-16T17:00:59.251Z,1015.46
2018-05-16T17:02:26.752Z,1015.46
2018-05-16T17:03:53.886Z,1015.48
2018-05-16T17:05:21.537Z,1015.48
2018-05-16T17:06:49.073Z,1015.48
2018-05-16T17:08:16.431Z,1015.50
2018-05-16T17:09:44.071Z,1015.51
2018-05-16T17:11:11.706Z,1015.51
2018-05-16T17:12:39.224Z,1015.49
2018-05-16T17:14:06.642Z,1015.49
2018-05-16T17:15:34.147Z,1015.49
2018-05-16T17:17:01.439Z,1015.47
2018-05-16T17:18:28.983Z,1015.45
2018-05-16T17:19:56.552Z,1015.44
2018-05-16T17:21:23.996Z,1015.46
2018-05-16T17:22:51.397Z,1015.47
2018-05-16T17:24:19.039Z,1015.48
2018-05-16T17:25:46.476Z,1015.47
2018-05-16T17:27:17.138Z,1015.47
2018-05-16T17:28:41.635Z,1015.47
2018-05-16T17:30:09.337Z,1015.45
2018-05-16T17:31:36.605Z,1015.43
2018-05-16T17:33:04.008Z,1015.41
2018-05-16T17:34:31.518Z,1015.41
2018-05-16T17:35:58.644Z,1015.41
2018-05-16T17:37:26.249Z,1015.38
2018-05-16T17:38:53.807Z,1015.39